Terminal Aerodrome Forecast
Issued by NWS

Home | Current Version | Previous Version | Text Only | Print | Product List | Glossary On
Versions: 1 2 3 4 5 6 7 8 9 10 11 12 13 14 15 16 17 18 19 20 21 22 23 24 25 26 27 28 29 30 31 32 33 34 35
000
FTUS44 KHGX 262015 AAA
TAFUTS
TAF AMD
KUTS 262015Z 2620/2718 23012G19KT P6SM VCTS SCT040CB
     FM262100 32020KT P6SM FEW070 BKN250
     FM270100 30011KT P6SM SKC
     FM270600 VRB03KT P6SM SKC
     FM271500 16006KT P6SM SKC=

USA.gov is the U.S. government's official web portal to all federal, state and local government web resources and services.